Amite, Louisiana
Current Conditions -  °F | °C
As of 9:53 AM on Saturday 20 Dec 2014 (Local Time) from KMCB Reporting Station
Overcast Overcast  
Wind Chill: 41°   Ceiling: 600
Heat Index: 46°   Visibility: 9mi
Dew Point: 43°   Wind: 9mph
Humidity: 89%   Direction: 30°NNE
Pressure: 30.2"   Gusts: NA
Location:  30.73°N, 90.51°W
Report Text: KMCB 201553Z AUTO 03008KT 9SM OVC006 08/06 A3020 RMK AO2 SLP226 T00780061
Loading
Personal Weather Stations






























Interactive Weather Map New forecast layout! Learn more

10-Day Weather Forecast

Advertisements
Track Severe Weather on mobile